Iowa Falls, Iowa
Current Conditions -  °F | °C
As of 4:55 PM on Tuesday 21 Oct 2014 (Local Time) from KIFA Reporting Station
Clear Clear  
Wind Chill: 16°   Ceiling: Unl
Heat Index: 16°   Visibility: 10mi
Dew Point:   Wind: 7mph
Humidity: 45%   Direction: 140°SE
Pressure: 30.14"   Gusts: NA
Location:  42.52°N, 93.26°W
Report Text: KIFA 212155Z AUTO 14006KT 10SM CLR 16/05 A3014 RMK AO2 T01640045
Loading
Personal Weather Stations






























Interactive Weather Map
Tropical Storm Tracking
New forecast layout! Learn more

10-Day Weather Forecast

Advertisements
Track Severe Weather on mobile